createdAt,value
2023-04-12T00:00:33.324Z,2.50
2023-04-12T00:03:03.333Z,2.23
2023-04-12T00:05:31.902Z,2.20
2023-04-12T00:08:02.512Z,2.00
2023-04-12T00:10:30.907Z,2.17
2023-04-12T00:13:00.639Z,2.23
2023-04-12T00:15:29.485Z,2.17
2023-04-12T00:17:57.911Z,2.20
2023-04-12T00:20:27.375Z,2.30
2023-04-12T00:22:57.848Z,2.13
2023-04-12T00:25:26.907Z,2.10
2023-04-12T00:27:55.265Z,1.90
2023-04-12T00:30:25.148Z,1.90
2023-04-12T00:32:53.699Z,1.80
2023-04-12T00:35:22.043Z,1.90
2023-04-12T00:37:52.456Z,1.87
2023-04-12T00:40:21.084Z,2.00
2023-04-12T00:42:49.628Z,2.50
2023-04-12T00:45:17.963Z,1.80
2023-04-12T00:47:48.279Z,2.47
2023-04-12T00:50:16.852Z,2.20
2023-04-12T00:52:45.265Z,1.77
2023-04-12T00:55:13.695Z,1.73
2023-04-12T00:57:42.073Z,1.87
2023-04-12T01:00:13.881Z,2.03
2023-04-12T01:02:47.980Z,1.83
2023-04-12T01:05:22.991Z,1.70
2023-04-12T01:08:05.028Z,1.63
2023-04-12T01:10:42.422Z,1.97
2023-04-12T01:13:23.112Z,1.80
2023-04-12T01:15:59.317Z,1.73
2023-04-12T01:18:31.944Z,1.60
2023-04-12T01:21:08.852Z,1.50
2023-04-12T01:23:55.573Z,1.63
2023-04-12T01:26:35.296Z,1.97
2023-04-12T01:29:11.519Z,1.80
2023-04-12T01:31:42.685Z,1.70
2023-04-12T01:34:13.563Z,1.57
2023-04-12T01:36:46.182Z,1.30
2023-04-12T01:39:14.690Z,1.50
2023-04-12T01:41:45.418Z,1.30
2023-04-12T01:44:22.176Z,1.47
2023-04-12T01:46:51.868Z,1.43
2023-04-12T01:49:20.880Z,1.30
2023-04-12T01:51:54.075Z,1.60
2023-04-12T01:54:27.604Z,1.03
2023-04-12T01:56:59.324Z,1.10
2023-04-12T01:59:34.200Z,1.47
2023-04-12T02:02:04.353Z,1.60
2023-04-12T02:04:33.907Z,1.10
2023-04-12T02:07:02.708Z,1.43
2023-04-12T02:09:31.332Z,1.30
2023-04-12T02:12:01.247Z,1.20
2023-04-12T02:14:31.624Z,1.57
2023-04-12T02:17:02.513Z,1.10
2023-04-12T02:19:31.507Z,1.10
2023-04-12T02:22:00.027Z,1.10
2023-04-12T02:24:28.457Z,1.43
2023-04-12T02:26:56.922Z,1.30
2023-04-12T02:29:25.166Z,1.50
2023-04-12T02:31:54.965Z,1.63
2023-04-12T02:34:23.276Z,1.43
2023-04-12T02:36:51.850Z,1.20
2023-04-12T02:39:22.358Z,1.23
2023-04-12T02:41:50.952Z,1.27
2023-04-12T02:44:19.425Z,1.30
2023-04-12T02:46:47.910Z,1.50
2023-04-12T02:49:17.683Z,1.77
2023-04-12T02:51:46.780Z,1.27
2023-04-12T02:54:15.330Z,1.70
2023-04-12T02:56:44.894Z,1.53
2023-04-12T02:59:13.280Z,1.47
2023-04-12T03:01:46.825Z,1.70
2023-04-12T03:04:16.590Z,1.30
2023-04-12T03:06:53.934Z,1.53
2023-04-12T03:09:22.357Z,1.73
2023-04-12T03:11:50.951Z,1.40
2023-04-12T03:14:19.685Z,1.50
2023-04-12T03:16:49.202Z,1.40
2023-04-12T03:19:18.141Z,1.67
2023-04-12T03:21:48.152Z,1.60
2023-04-12T03:24:17.092Z,1.60
2023-04-12T03:26:45.482Z,1.70
2023-04-12T03:29:14.126Z,2.00
2023-04-12T03:31:42.568Z,1.60
2023-04-12T03:34:10.977Z,1.60
2023-04-12T03:36:39.591Z,1.63
2023-04-12T03:39:09.315Z,1.63
2023-04-12T03:41:37.694Z,1.67
2023-04-12T03:44:07.765Z,1.90
2023-04-12T03:46:36.471Z,2.03
2023-04-12T03:49:04.933Z,2.10
2023-04-12T03:51:33.337Z,1.60
2023-04-12T03:54:02.941Z,1.70
2023-04-12T03:56:32.731Z,1.77
2023-04-12T03:59:01.473Z,1.77
2023-04-12T04:01:29.914Z,1.60
2023-04-12T04:03:58.556Z,1.40
2023-04-12T04:06:27.892Z,1.80
2023-04-12T04:08:56.544Z,1.73
2023-04-12T04:11:25.793Z,1.50
2023-04-12T04:13:56.196Z,1.83
2023-04-12T04:16:24.826Z,1.40
2023-04-12T04:18:53.401Z,1.80
2023-04-12T04:21:22.457Z,1.70
2023-04-12T04:23:52.042Z,1.43
2023-04-12T04:26:21.193Z,1.60
2023-04-12T04:28:50.642Z,1.50
2023-04-12T04:31:22.404Z,1.73
2023-04-12T04:33:51.958Z,1.43
2023-04-12T04:36:20.782Z,1.40
2023-04-12T04:38:49.487Z,1.40
2023-04-12T04:41:22.843Z,1.57
2023-04-12T04:43:51.633Z,1.60
2023-04-12T04:46:22.344Z,1.87
2023-04-12T04:48:55.265Z,1.40
2023-04-12T04:51:23.888Z,1.70
2023-04-12T04:53:52.370Z,1.53
2023-04-12T04:56:23.190Z,1.90
2023-04-12T04:58:51.666Z,1.47
2023-04-12T05:01:21.515Z,1.70
2023-04-12T05:03:50.165Z,1.50
2023-04-12T05:06:19.159Z,1.40
2023-04-12T05:08:47.581Z,1.93
2023-04-12T05:11:16.302Z,2.60
2023-04-12T05:13:44.615Z,2.07
2023-04-12T05:16:13.469Z,1.87
2023-04-12T05:18:43.183Z,1.73
2023-04-12T05:21:11.727Z,1.60
2023-04-12T05:23:45.965Z,1.47
2023-04-12T05:26:14.646Z,1.43
2023-04-12T05:28:43.102Z,1.60
2023-04-12T05:31:11.863Z,1.67
2023-04-12T05:33:40.370Z,1.43
2023-04-12T05:36:11.047Z,1.60
2023-04-12T05:38:39.341Z,1.10
2023-04-12T05:41:08.225Z,1.30
2023-04-12T05:43:37.850Z,1.20
2023-04-12T05:46:08.094Z,1.27
2023-04-12T05:48:36.572Z,1.30
2023-04-12T05:51:05.774Z,1.73
2023-04-12T05:53:35.589Z,1.63
2023-04-12T05:56:03.928Z,1.73
2023-04-12T05:58:33.289Z,1.57
2023-04-12T06:01:01.791Z,1.40
2023-04-12T06:03:32.436Z,1.43
2023-04-12T06:06:02.576Z,1.80
2023-04-12T06:08:31.237Z,1.40
2023-04-12T06:11:01.050Z,1.43
2023-04-12T06:13:29.374Z,1.20
2023-04-12T06:15:57.951Z,1.10
2023-04-12T06:18:26.388Z,1.40
2023-04-12T06:20:54.852Z,1.37
2023-04-12T06:23:23.252Z,1.10
2023-04-12T06:25:53.397Z,1.30
2023-04-12T06:28:23.264Z,1.50
2023-04-12T06:30:51.589Z,1.50
2023-04-12T06:33:22.605Z,1.40
2023-04-12T06:35:51.055Z,1.30
2023-04-12T06:38:20.091Z,1.80
2023-04-12T06:40:48.951Z,2.27
2023-04-12T06:43:20.384Z,1.90
2023-04-12T06:45:50.953Z,2.00
2023-04-12T06:48:24.276Z,2.03
2023-04-12T06:50:52.586Z,1.77
2023-04-12T06:53:20.984Z,1.80
2023-04-12T06:55:49.750Z,2.20
2023-04-12T06:58:18.379Z,2.00
2023-04-12T07:00:46.741Z,2.20
2023-04-12T07:03:16.742Z,1.90
2023-04-12T07:05:45.236Z,1.93
2023-04-12T07:08:13.605Z,2.00
2023-04-12T07:10:41.963Z,1.93
2023-04-12T07:13:10.585Z,1.80
2023-04-12T07:15:38.912Z,1.87
2023-04-12T07:18:07.429Z,1.97
2023-04-12T07:20:37.401Z,1.80
2023-04-12T07:23:05.810Z,1.90
2023-04-12T07:25:34.321Z,1.73
2023-04-12T07:28:03.708Z,1.30
2023-04-12T07:30:32.013Z,1.50
2023-04-12T07:33:12.226Z,1.60
2023-04-12T07:35:48.506Z,1.57
2023-04-12T07:38:17.170Z,1.30
2023-04-12T07:40:47.628Z,1.63
2023-04-12T07:43:18.232Z,1.67
2023-04-12T07:45:46.869Z,1.43
2023-04-12T07:48:15.644Z,1.80
2023-04-12T07:50:46.003Z,1.70
2023-04-12T07:53:23.475Z,1.77
2023-04-12T07:55:53.047Z,1.80
2023-04-12T07:58:22.581Z,2.20
2023-04-12T08:00:51.890Z,2.00
2023-04-12T08:03:20.833Z,1.97
2023-04-12T08:05:53.671Z,1.90
2023-04-12T08:08:23.869Z,1.83
2023-04-12T08:10:52.810Z,1.90
2023-04-12T08:13:21.410Z,1.70
2023-04-12T08:15:49.761Z,1.80
2023-04-12T08:18:18.205Z,1.83
2023-04-12T08:20:47.212Z,2.30
2023-04-12T08:23:16.038Z,2.73
2023-04-12T08:25:46.139Z,2.53
2023-04-12T08:28:14.414Z,2.37
2023-04-12T08:30:44.082Z,2.10
2023-04-12T08:33:12.386Z,2.50
2023-04-12T08:35:41.349Z,3.00
2023-04-12T08:38:09.782Z,3.83
2023-04-12T08:40:38.616Z,2.83
2023-04-12T08:43:10.034Z,3.30
2023-04-12T08:45:39.515Z,2.23
2023-04-12T08:48:07.853Z,2.53
2023-04-12T08:50:36.390Z,2.33
2023-04-12T08:53:05.327Z,2.90
2023-04-12T08:55:33.678Z,2.57
2023-04-12T08:58:07.405Z,2.70
2023-04-12T09:00:38.793Z,2.30
2023-04-12T09:03:07.684Z,2.27
2023-04-12T09:05:36.212Z,2.20
2023-04-12T09:08:05.558Z,1.80
2023-04-12T09:10:36.642Z,1.83
2023-04-12T09:13:05.645Z,1.70
2023-04-12T09:15:36.364Z,1.77
2023-04-12T09:18:06.915Z,1.80
2023-04-12T09:20:35.801Z,1.50
2023-04-12T09:23:19.483Z,2.07
2023-04-12T09:25:51.079Z,1.80
2023-04-12T09:28:21.891Z,1.93
2023-04-12T09:30:55.239Z,2.03
2023-04-12T09:33:34.042Z,2.00
2023-04-12T09:36:03.194Z,2.33
2023-04-12T09:38:32.133Z,4.20
2023-04-12T09:41:20.252Z,4.00
2023-04-12T09:43:49.971Z,3.40
2023-04-12T09:46:20.998Z,3.27
2023-04-12T09:48:53.517Z,2.30
2023-04-12T09:51:29.759Z,1.67
2023-04-12T09:54:01.065Z,1.60
2023-04-12T09:56:32.360Z,1.97
2023-04-12T09:59:04.299Z,1.50
2023-04-12T10:01:37.414Z,1.20
2023-04-12T10:04:08.439Z,1.30
2023-04-12T10:06:38.149Z,1.20
2023-04-12T10:09:08.736Z,1.20
2023-04-12T10:11:42.169Z,1.63
2023-04-12T10:14:12.214Z,1.20
2023-04-12T10:16:43.189Z,1.20
2023-04-12T10:19:13.757Z,1.37
2023-04-12T10:21:42.264Z,1.67
2023-04-12T10:24:11.317Z,1.70
2023-04-12T10:26:44.402Z,1.67
2023-04-12T10:29:26.526Z,1.60
2023-04-12T10:31:57.173Z,2.00
2023-04-12T10:34:28.287Z,1.70
2023-04-12T10:36:57.818Z,2.40
2023-04-12T10:39:40.377Z,2.30
2023-04-12T10:42:23.199Z,2.57
2023-04-12T10:44:53.381Z,2.30
2023-04-12T10:48:03.938Z,3.40
2023-04-12T10:50:33.989Z,1.90
2023-04-12T10:53:26.227Z,2.00
2023-04-12T10:55:54.985Z,1.90
2023-04-12T10:59:05.869Z,1.90
2023-04-12T11:01:38.320Z,1.90
2023-04-12T11:04:10.675Z,1.73
2023-04-12T11:06:52.380Z,1.93
2023-04-12T11:09:26.562Z,2.10
2023-04-12T11:11:59.467Z,2.57
2023-04-12T11:14:31.321Z,1.93
2023-04-12T11:17:24.935Z,3.00
2023-04-12T11:19:57.995Z,5.10
2023-04-12T11:22:28.981Z,3.20
2023-04-12T11:24:59.419Z,2.60
2023-04-12T11:27:29.673Z,1.60
2023-04-12T11:30:03.875Z,1.90
2023-04-12T11:32:34.310Z,1.40
2023-04-12T11:35:04.276Z,1.50
2023-04-12T11:37:33.042Z,1.73
2023-04-12T11:40:01.601Z,1.50
2023-04-12T11:42:30.557Z,1.97
2023-04-12T11:45:04.856Z,1.80
2023-04-12T11:47:36.007Z,2.40
2023-04-12T11:50:06.784Z,1.90
2023-04-12T11:52:35.540Z,1.60
2023-04-12T11:55:06.857Z,1.60
2023-04-12T11:57:36.605Z,1.80
2023-04-12T12:00:07.126Z,1.50
2023-04-12T12:02:46.025Z,1.40
2023-04-12T12:05:22.976Z,1.40
2023-04-12T12:07:54.201Z,1.60
2023-04-12T12:10:40.056Z,2.03
2023-04-12T12:13:12.652Z,1.80
2023-04-12T12:15:41.479Z,2.20
2023-04-12T12:18:11.184Z,2.00
2023-04-12T12:20:49.127Z,1.60
2023-04-12T12:23:30.156Z,1.73
2023-04-12T12:26:14.429Z,1.93
2023-04-12T12:28:50.442Z,1.50
2023-04-12T12:31:21.713Z,1.80
2023-04-12T12:33:52.649Z,1.70
2023-04-12T12:36:22.470Z,1.80
2023-04-12T12:38:54.738Z,2.00
2023-04-12T12:41:25.089Z,2.00
2023-04-12T12:43:54.420Z,2.30
2023-04-12T12:46:22.957Z,2.60
2023-04-12T12:48:51.428Z,2.90
2023-04-12T12:51:21.401Z,15.67
2023-04-12T12:53:49.895Z,7.87
2023-04-12T12:56:18.287Z,4.20
2023-04-12T12:58:46.894Z,12.93
2023-04-12T13:01:15.270Z,3.33
2023-04-12T13:03:43.863Z,2.90
2023-04-12T13:06:12.247Z,2.40
2023-04-12T13:08:42.005Z,2.90
2023-04-12T13:11:12.491Z,2.20
2023-04-12T13:13:40.915Z,2.80
2023-04-12T13:16:09.908Z,1.80
2023-04-12T13:18:38.334Z,2.20
2023-04-12T13:21:07.863Z,2.57
2023-04-12T13:23:36.326Z,3.43
2023-04-12T13:26:06.655Z,2.47
2023-04-12T13:28:35.020Z,2.80
2023-04-12T13:31:03.629Z,3.23
2023-04-12T13:33:32.029Z,3.10
2023-04-12T13:36:00.501Z,3.00
2023-04-12T13:38:28.845Z,2.60
2023-04-12T13:40:57.700Z,2.50
2023-04-12T13:43:27.422Z,3.20
2023-04-12T13:45:56.178Z,2.77
2023-04-12T13:48:24.779Z,3.20
2023-04-12T13:50:55.056Z,2.80
2023-04-12T13:53:23.986Z,2.73
2023-04-12T13:55:52.398Z,2.53
2023-04-12T13:58:20.811Z,2.60
2023-04-12T14:00:50.847Z,3.07
2023-04-12T14:03:19.288Z,3.43
2023-04-12T14:05:47.657Z,3.07
2023-04-12T14:08:16.010Z,3.37
2023-04-12T14:10:45.020Z,2.30
2023-04-12T14:13:14.522Z,2.70
2023-04-12T14:15:42.824Z,3.17
2023-04-12T14:18:12.715Z,3.07
2023-04-12T14:20:41.573Z,2.50
2023-04-12T14:23:10.013Z,2.53
2023-04-12T14:25:40.900Z,2.07
2023-04-12T14:28:09.214Z,2.33
2023-04-12T14:30:37.782Z,2.43
2023-04-12T14:33:12.883Z,2.50
2023-04-12T14:35:41.335Z,1.90
2023-04-12T14:38:09.704Z,2.10
2023-04-12T14:40:38.380Z,2.07
2023-04-12T14:43:07.759Z,2.40
2023-04-12T14:45:38.532Z,2.10
2023-04-12T14:48:07.107Z,2.10
2023-04-12T14:50:38.079Z,1.90
2023-04-12T14:53:06.403Z,2.00
2023-04-12T14:55:34.936Z,2.27
2023-04-12T14:58:03.828Z,2.90
2023-04-12T15:00:32.219Z,3.03
2023-04-12T15:03:00.988Z,3.67
2023-04-12T15:05:29.513Z,3.97
2023-04-12T15:07:59.269Z,3.23
2023-04-12T15:10:28.133Z,2.20
2023-04-12T15:12:58.156Z,2.73
2023-04-12T15:15:26.671Z,2.90
2023-04-12T15:17:55.017Z,2.30
2023-04-12T15:20:23.456Z,2.20
2023-04-12T15:22:51.829Z,2.50
2023-04-12T15:25:22.193Z,2.73
2023-04-12T15:27:50.942Z,2.83
2023-04-12T15:30:19.222Z,3.30
2023-04-12T15:32:47.706Z,3.70
2023-04-12T15:35:26.178Z,6.37
2023-04-12T15:37:55.755Z,6.00
2023-04-12T15:40:25.999Z,5.57
2023-04-12T15:42:54.475Z,4.97
2023-04-12T15:45:23.051Z,3.53
2023-04-12T15:47:51.440Z,3.40
2023-04-12T15:50:20.143Z,2.80
2023-04-12T15:52:48.988Z,4.00
2023-04-12T15:55:20.480Z,2.70
2023-04-12T15:57:50.168Z,3.50
2023-04-12T16:00:24.631Z,3.40
2023-04-12T16:02:55.025Z,2.23
2023-04-12T16:05:24.888Z,2.53
2023-04-12T16:07:53.215Z,2.27
2023-04-12T16:10:22.875Z,2.60
2023-04-12T16:12:54.836Z,2.70
2023-04-12T16:15:23.508Z,2.70
2023-04-12T16:17:54.524Z,2.73
2023-04-12T16:20:23.663Z,2.50
2023-04-12T16:22:57.821Z,3.30
2023-04-12T16:25:28.557Z,4.23
2023-04-12T16:28:02.388Z,5.00
2023-04-12T16:30:30.867Z,3.70
2023-04-12T16:32:59.531Z,3.60
2023-04-12T16:35:28.032Z,3.17
2023-04-12T16:37:56.585Z,3.50
2023-04-12T16:40:25.986Z,2.90
2023-04-12T16:42:54.457Z,2.73
2023-04-12T16:45:24.976Z,2.50
2023-04-12T16:47:54.936Z,2.57
2023-04-12T16:50:24.402Z,2.80
2023-04-12T16:52:52.971Z,3.63
2023-04-12T16:55:21.477Z,2.97
2023-04-12T16:57:53.215Z,3.37
2023-04-12T17:00:25.407Z,3.60
2023-04-12T17:02:55.182Z,3.43
2023-04-12T17:05:24.872Z,4.00
2023-04-12T17:07:55.702Z,4.90
2023-04-12T17:10:25.301Z,5.17
2023-04-12T17:12:56.707Z,4.63
2023-04-12T17:15:28.470Z,4.23
2023-04-12T17:18:03.485Z,5.10
2023-04-12T17:20:32.419Z,5.10
2023-04-12T17:23:01.606Z,4.50
2023-04-12T17:25:31.455Z,4.00
2023-04-12T17:28:00.633Z,6.40
2023-04-12T17:30:30.867Z,6.90
2023-04-12T17:33:01.357Z,9.20
2023-04-12T17:35:30.555Z,11.27
2023-04-12T17:37:58.855Z,7.30
2023-04-12T17:40:27.311Z,6.83
2023-04-12T17:42:56.161Z,6.10
2023-04-12T17:45:24.768Z,6.80
2023-04-12T17:47:54.861Z,5.73
2023-04-12T17:50:23.590Z,6.07
2023-04-12T17:52:51.945Z,6.50
2023-04-12T17:55:23.609Z,5.90
2023-04-12T17:57:52.591Z,6.30
2023-04-12T18:00:23.453Z,6.70
2023-04-12T18:02:52.015Z,5.97
2023-04-12T18:05:22.022Z,5.30
2023-04-12T18:07:50.470Z,5.07
2023-04-12T18:10:21.643Z,6.33
2023-04-12T18:12:50.305Z,15.93
2023-04-12T18:15:19.272Z,6.70
2023-04-12T18:17:47.712Z,11.37
2023-04-12T18:20:16.724Z,39.07
2023-04-12T18:22:46.584Z,33.60
2023-04-12T18:25:14.981Z,11.43
2023-04-12T18:27:43.446Z,4.73
2023-04-12T18:30:12.387Z,4.97
2023-04-12T18:32:40.865Z,4.57
2023-04-12T18:35:10.131Z,4.60
2023-04-12T18:37:38.482Z,6.17
2023-04-12T18:40:10.086Z,6.60
2023-04-12T18:42:39.646Z,5.00
2023-04-12T18:45:09.659Z,5.53
2023-04-12T18:47:39.201Z,6.07
2023-04-12T18:50:08.880Z,4.87
2023-04-12T18:52:37.703Z,5.40
2023-04-12T18:55:08.832Z,5.03
2023-04-12T18:57:37.230Z,5.73
2023-04-12T19:00:10.589Z,5.90
2023-04-12T19:02:39.080Z,6.10
2023-04-12T19:05:09.031Z,5.87
2023-04-12T19:07:37.476Z,5.53
2023-04-12T19:10:08.613Z,5.90
2023-04-12T19:12:37.100Z,6.93
2023-04-12T19:15:07.142Z,7.90
2023-04-12T19:17:38.849Z,6.33
2023-04-12T19:20:09.001Z,5.27
2023-04-12T19:22:37.581Z,4.27
2023-04-12T19:25:08.531Z,4.40
2023-04-12T19:27:37.216Z,4.97
2023-04-12T19:30:06.406Z,4.73
2023-04-12T19:32:34.845Z,4.93
2023-04-12T19:35:06.956Z,5.97
2023-04-12T19:37:35.403Z,6.10
2023-04-12T19:40:04.171Z,5.40
2023-04-12T19:42:33.991Z,5.40
2023-04-12T19:45:02.689Z,4.80
2023-04-12T19:47:33.757Z,5.60
2023-04-12T19:50:02.619Z,5.60
2023-04-12T19:52:30.947Z,5.70
2023-04-12T19:55:01.816Z,5.67
2023-04-12T19:57:30.470Z,5.80
2023-04-12T20:00:00.432Z,7.17
2023-04-12T20:02:29.415Z,7.07
2023-04-12T20:04:57.830Z,6.10
2023-04-12T20:07:26.123Z,6.23
2023-04-12T20:09:54.580Z,6.67
2023-04-12T20:12:22.894Z,6.03
2023-04-12T20:14:51.320Z,5.50
2023-04-12T20:17:22.268Z,5.93
2023-04-12T20:19:55.344Z,5.63
2023-04-12T20:22:24.424Z,6.40
2023-04-12T20:24:54.120Z,6.10
2023-04-12T20:27:23.140Z,5.67
2023-04-12T20:29:52.043Z,5.73
2023-04-12T20:32:23.548Z,6.90
2023-04-12T20:34:52.147Z,6.33
2023-04-12T20:37:20.597Z,6.80
2023-04-12T20:39:50.039Z,7.57
2023-04-12T20:42:20.637Z,7.07
2023-04-12T20:44:49.325Z,7.00
2023-04-12T20:47:19.880Z,6.87
2023-04-12T20:49:56.269Z,6.80
2023-04-12T20:52:25.497Z,7.73
2023-04-12T20:54:54.770Z,6.53
2023-04-12T20:57:23.902Z,7.43
2023-04-12T20:59:52.731Z,7.60
2023-04-12T21:05:08.692Z,7.37
2023-04-12T21:07:37.708Z,6.80
2023-04-12T21:10:07.133Z,7.23
2023-04-12T21:12:36.706Z,6.90
2023-04-12T21:15:06.285Z,7.63
2023-04-12T21:17:35.547Z,7.77
2023-04-12T21:20:13.927Z,6.97
2023-04-12T21:22:47.019Z,7.73
2023-04-12T21:25:17.399Z,8.23
2023-04-12T21:27:47.878Z,6.87
2023-04-12T21:30:16.548Z,7.53
2023-04-12T21:32:44.959Z,7.67
2023-04-12T21:35:18.584Z,7.50
2023-04-12T21:37:48.714Z,7.33
2023-04-12T21:40:17.266Z,8.63
2023-04-12T21:42:46.003Z,7.93
2023-04-12T21:45:14.851Z,8.10
2023-04-12T21:47:44.194Z,7.80
2023-04-12T21:50:14.042Z,7.87
2023-04-12T21:52:44.302Z,8.50
2023-04-12T21:55:14.694Z,8.17
2023-04-12T21:57:42.995Z,7.47
2023-04-12T22:00:12.503Z,7.50
2023-04-12T22:02:41.087Z,8.10
2023-04-12T22:05:09.971Z,8.23
2023-04-12T22:07:41.627Z,8.50
2023-04-12T22:10:12.250Z,7.60
2023-04-12T22:12:42.424Z,9.10
2023-04-12T22:15:13.677Z,8.40
2023-04-12T22:17:42.079Z,8.70
2023-04-12T22:20:11.250Z,7.80
2023-04-12T22:22:39.943Z,8.33
2023-04-12T22:25:12.173Z,8.60
2023-04-12T22:27:42.269Z,7.67
2023-04-12T22:30:11.928Z,8.63
2023-04-12T22:32:40.488Z,8.93
2023-04-12T22:35:10.324Z,7.30
2023-04-12T22:37:41.363Z,6.70
2023-04-12T22:40:13.856Z,7.10
2023-04-12T22:42:47.614Z,8.07
2023-04-12T22:45:16.715Z,6.80
2023-04-12T22:47:45.665Z,6.07
2023-04-12T22:50:14.442Z,6.07
2023-04-12T22:52:42.834Z,6.20
2023-04-12T22:55:14.035Z,6.53
2023-04-12T22:57:43.768Z,5.70
2023-04-12T23:00:17.159Z,6.47
2023-04-12T23:02:47.785Z,7.30
2023-04-12T23:05:16.700Z,6.60
2023-04-12T23:07:45.410Z,7.03
2023-04-12T23:10:13.786Z,8.10
2023-04-12T23:12:43.608Z,6.97
2023-04-12T23:15:12.822Z,7.40
2023-04-12T23:17:41.213Z,6.63
2023-04-12T23:20:13.308Z,8.03
2023-04-12T23:22:57.552Z,7.63
2023-04-12T23:25:38.087Z,7.37
2023-04-12T23:28:12.508Z,8.20
2023-04-12T23:30:43.049Z,6.70
2023-04-12T23:33:12.050Z,8.43
2023-04-12T23:35:41.792Z,7.47
2023-04-12T23:38:10.868Z,6.23
2023-04-12T23:40:39.188Z,7.57
2023-04-12T23:43:09.087Z,8.43
2023-04-12T23:45:38.172Z,8.37
2023-04-12T23:48:07.228Z,8.80
2023-04-12T23:50:35.798Z,8.07
2023-04-12T23:53:04.114Z,7.93
2023-04-12T23:55:32.436Z,7.53
2023-04-12T23:58:00.927Z,8.13
